sensor_id;sensor_type;location;lat;lon;timestamp;pressure;altitude;pressure_sealevel;temperature;humidity
5877;BME280;2964;42.144;24.730;2022-11-11T00:02:01;143450.25;;;7.45;100.00
5877;BME280;2964;42.144;24.730;2022-11-11T00:04:28;143490.34;;;7.61;100.00
5877;BME280;2964;42.144;24.730;2022-11-11T00:06:54;143484.13;;;7.59;100.00
5877;BME280;2964;42.144;24.730;2022-11-11T00:09:21;143481.59;;;7.58;100.00
5877;BME280;2964;42.144;24.730;2022-11-11T00:11:47;143560.56;;;7.90;100.00
5877;BME280;2964;42.144;24.730;2022-11-11T00:14:14;143515.44;;;7.71;100.00
5877;BME280;2964;42.144;24.730;2022-11-11T00:16:42;143491.66;;;7.62;100.00
5877;BME280;2964;42.144;24.730;2022-11-11T00:19:26;143461.56;;;7.49;100.00
5877;BME280;2964;42.144;24.730;2022-11-11T00:22:19;143504.13;;;7.67;100.00
5877;BME280;2964;42.144;24.730;2022-11-11T00:25:03;143517.91;;;7.72;100.00
5877;BME280;2964;42.144;24.730;2022-11-11T00:27:34;143536.75;;;7.80;100.00
5877;BME280;2964;42.144;24.730;2022-11-11T00:30:01;143487.88;;;7.60;100.00
5877;BME280;2964;42.144;24.730;2022-11-11T00:32:31;143456.56;;;7.47;100.00
5877;BME280;2964;42.144;24.730;2022-11-11T00:34:58;143516.69;;;7.72;100.00
5877;BME280;2964;42.144;24.730;2022-11-11T00:37:45;143495.38;;;7.63;100.00
5877;BME280;2964;42.144;24.730;2022-11-11T00:40:14;143435.25;;;7.39;100.00
5877;BME280;2964;42.144;24.730;2022-11-11T00:42:41;143411.44;;;7.29;100.00
5877;BME280;2964;42.144;24.730;2022-11-11T00:45:09;143373.84;;;7.13;100.00
5877;BME280;2964;42.144;24.730;2022-11-11T00:47:37;143412.69;;;7.29;100.00
5877;BME280;2964;42.144;24.730;2022-11-11T00:50:23;143398.91;;;7.24;100.00
5877;BME280;2964;42.144;24.730;2022-11-11T00:53:10;143383.91;;;7.18;100.00
5877;BME280;2964;42.144;24.730;2022-11-11T00:55:36;143380.13;;;7.16;100.00
5877;BME280;2964;42.144;24.730;2022-11-11T00:58:03;143368.84;;;7.11;100.00
5877;BME280;2964;42.144;24.730;2022-11-11T01:00:30;143371.38;;;7.12;100.00
5877;BME280;2964;42.144;24.730;2022-11-11T01:02:58;143435.25;;;7.39;100.00
5877;BME280;2964;42.144;24.730;2022-11-11T01:05:25;143412.69;;;7.29;100.00
5877;BME280;2964;42.144;24.730;2022-11-11T01:07:52;143412.69;;;7.29;100.00
5877;BME280;2964;42.144;24.730;2022-11-11T01:10:21;143375.13;;;7.14;100.00
5877;BME280;2964;42.144;24.730;2022-11-11T01:13:14;143358.81;;;7.07;100.00
5877;BME280;2964;42.144;24.730;2022-11-11T01:15:42;143355.06;;;7.06;100.00
5877;BME280;2964;42.144;24.730;2022-11-11T01:18:13;143338.81;;;6.99;100.00
5877;BME280;2964;42.144;24.730;2022-11-11T01:20:40;143336.28;;;6.98;100.00
5877;BME280;2964;42.144;24.730;2022-11-11T01:23:09;143333.75;;;6.97;100.00
5877;BME280;2964;42.144;24.730;2022-11-11T01:25:39;143321.28;;;6.92;100.00
5877;BME280;2964;42.144;24.730;2022-11-11T01:28:07;143345.06;;;7.02;100.00
5877;BME280;2964;42.144;24.730;2022-11-11T01:30:34;143337.53;;;6.99;100.00
5877;BME280;2964;42.144;24.730;2022-11-11T01:33:02;143269.91;;;6.71;100.00
5877;BME280;2964;42.144;24.730;2022-11-11T01:35:31;143303.72;;;6.85;100.00
5877;BME280;2964;42.144;24.730;2022-11-11T01:37:58;143318.75;;;6.91;100.00
5877;BME280;2964;42.144;24.730;2022-11-11T01:40:25;143228.59;;;6.54;100.00
5877;BME280;2964;42.144;24.730;2022-11-11T01:42:55;143333.75;;;6.97;100.00
5877;BME280;2964;42.144;24.730;2022-11-11T01:45:48;143306.22;;;6.86;100.00
5877;BME280;2964;42.144;24.730;2022-11-11T01:48:18;143286.19;;;6.78;100.00
5877;BME280;2964;42.144;24.730;2022-11-11T01:51:11;143306.22;;;6.86;100.00
5877;BME280;2964;42.144;24.730;2022-11-11T01:53:40;143288.69;;;6.79;100.00
5877;BME280;2964;42.144;24.730;2022-11-11T01:56:08;143303.72;;;6.85;100.00
5877;BME280;2964;42.144;24.730;2022-11-11T01:58:36;143335.03;;;6.98;100.00
5877;BME280;2964;42.144;24.730;2022-11-11T02:01:04;143321.28;;;6.92;100.00
5877;BME280;2964;42.144;24.730;2022-11-11T02:03:34;143311.22;;;6.88;100.00
5877;BME280;2964;42.144;24.730;2022-11-11T02:06:02;143288.69;;;6.79;100.00
5877;BME280;2964;42.144;24.730;2022-11-11T02:08:32;143307.50;;;6.86;100.00
5877;BME280;2964;42.144;24.730;2022-11-11T02:11:02;143352.59;;;7.05;100.00
5877;BME280;2964;42.144;24.730;2022-11-11T02:13:30;143322.50;;;6.92;100.00
5877;BME280;2964;42.144;24.730;2022-11-11T02:16:14;143313.75;;;6.89;100.00
5877;BME280;2964;42.144;24.730;2022-11-11T02:18:42;143318.75;;;6.91;100.00
5877;BME280;2964;42.144;24.730;2022-11-11T02:21:12;143312.50;;;6.88;100.00
5877;BME280;2964;42.144;24.730;2022-11-11T02:23:44;143403.91;;;7.26;100.00
5877;BME280;2964;42.144;24.730;2022-11-11T02:26:14;143358.81;;;7.07;100.00
5877;BME280;2964;42.144;24.730;2022-11-11T02:28:42;143189.78;;;6.38;100.00
5877;BME280;2964;42.144;24.730;2022-11-11T02:31:09;143489.13;;;7.61;100.00
5877;BME280;2964;42.144;24.730;2022-11-11T02:33:37;143350.06;;;7.04;100.00
5877;BME280;2964;42.144;24.730;2022-11-11T02:36:05;143580.59;;;7.98;100.00
5877;BME280;2964;42.144;24.730;2022-11-11T02:38:32;143570.56;;;7.94;100.00
5877;BME280;2964;42.144;24.730;2022-11-11T02:40:58;143509.16;;;7.69;100.00
5877;BME280;2964;42.144;24.730;2022-11-11T02:43:44;143487.88;;;7.60;100.00
5877;BME280;2964;42.144;24.730;2022-11-11T02:46:11;143427.72;;;7.35;100.00
5877;BME280;2964;42.144;24.730;2022-11-11T02:48:37;143410.16;;;7.28;100.00
5877;BME280;2964;42.144;24.730;2022-11-11T02:51:04;143459.03;;;7.48;100.00
5877;BME280;2964;42.144;24.730;2022-11-11T02:53:33;143342.53;;;7.01;100.00
5877;BME280;2964;42.144;24.730;2022-11-11T02:55:59;143311.22;;;6.88;100.00
5877;BME280;2964;42.144;24.730;2022-11-11T02:58:26;143244.88;;;6.61;100.00
5877;BME280;2964;42.144;24.730;2022-11-11T03:00:54;143158.47;;;6.25;100.00
5877;BME280;2964;42.144;24.730;2022-11-11T03:03:21;143183.53;;;6.35;100.00
5877;BME280;2964;42.144;24.730;2022-11-11T03:05:47;143139.72;;;6.17;100.00
5877;BME280;2964;42.144;24.730;2022-11-11T03:08:14;143058.34;;;5.84;100.00
5877;BME280;2964;42.144;24.730;2022-11-11T03:10:41;143188.53;;;6.37;100.00
5877;BME280;2964;42.144;24.730;2022-11-11T03:13:07;143073.38;;;5.90;100.00
5877;BME280;2964;42.144;24.730;2022-11-11T03:15:34;143164.75;;;6.28;100.00
5877;BME280;2964;42.144;24.730;2022-11-11T03:18:02;143161.00;;;6.26;100.00
5877;BME280;2964;42.144;24.730;2022-11-11T03:20:28;143176.00;;;6.32;100.00
5877;BME280;2964;42.144;24.730;2022-11-11T03:23:14;143164.75;;;6.28;100.00
5877;BME280;2964;42.144;24.730;2022-11-11T03:25:43;143142.25;;;6.18;100.00
5877;BME280;2964;42.144;24.730;2022-11-11T03:28:12;143156.00;;;6.24;100.00
5877;BME280;2964;42.144;24.730;2022-11-11T03:30:41;143117.19;;;6.08;100.00
5877;BME280;2964;42.144;24.730;2022-11-11T03:33:10;143154.75;;;6.24;100.00
5877;BME280;2964;42.144;24.730;2022-11-11T03:35:37;143169.75;;;6.30;100.00
5877;BME280;2964;42.144;24.730;2022-11-11T03:38:05;143198.53;;;6.42;100.00
5877;BME280;2964;42.144;24.730;2022-11-11T03:40:50;143223.59;;;6.52;100.00
5877;BME280;2964;42.144;24.730;2022-11-11T03:43:19;143222.34;;;6.51;100.00
5877;BME280;2964;42.144;24.730;2022-11-11T03:45:45;143203.59;;;6.44;100.00
5877;BME280;2964;42.144;24.730;2022-11-11T03:48:14;143181.06;;;6.34;100.00
5877;BME280;2964;42.144;24.730;2022-11-11T03:50:40;143218.59;;;6.50;100.00
5877;BME280;2964;42.144;24.730;2022-11-11T03:53:07;143198.53;;;6.42;100.00
5877;BME280;2964;42.144;24.730;2022-11-11T03:55:34;143162.25;;;6.27;100.00
5877;BME280;2964;42.144;24.730;2022-11-11T03:58:01;143152.25;;;6.23;100.00
5877;BME280;2964;42.144;24.730;2022-11-11T04:00:28;143232.38;;;6.55;100.00
5877;BME280;2964;42.144;24.730;2022-11-11T04:03:00;143161.00;;;6.26;100.00
5877;BME280;2964;42.144;24.730;2022-11-11T04:05:46;143149.75;;;6.22;100.00
5877;BME280;2964;42.144;24.730;2022-11-11T04:08:41;143133.47;;;6.15;100.00
5877;BME280;2964;42.144;24.730;2022-11-11T04:11:27;143144.72;;;6.19;100.00
5877;BME280;2964;42.144;24.730;2022-11-11T04:13:55;143148.47;;;6.21;100.00
5877;BME280;2964;42.144;24.730;2022-11-11T04:16:40;143176.00;;;6.32;100.00
5877;BME280;2964;42.144;24.730;2022-11-11T04:19:07;143168.53;;;6.29;100.00
5877;BME280;2964;42.144;24.730;2022-11-11T04:21:53;143176.00;;;6.32;100.00
5877;BME280;2964;42.144;24.730;2022-11-11T04:24:20;143176.00;;;6.32;100.00
5877;BME280;2964;42.144;24.730;2022-11-11T04:27:06;143237.38;;;6.57;100.00
5877;BME280;2964;42.144;24.730;2022-11-11T04:29:33;143233.59;;;6.56;100.00
5877;BME280;2964;42.144;24.730;2022-11-11T04:32:00;143227.34;;;6.53;100.00
5877;BME280;2964;42.144;24.730;2022-11-11T04:34:45;143301.22;;;6.84;100.00
5877;BME280;2964;42.144;24.730;2022-11-11T04:37:14;143251.13;;;6.63;100.00
5877;BME280;2964;42.144;24.730;2022-11-11T04:39:42;143196.06;;;6.41;100.00
5877;BME280;2964;42.144;24.730;2022-11-11T04:42:27;143243.59;;;6.60;100.00
5877;BME280;2964;42.144;24.730;2022-11-11T04:44:54;143248.66;;;6.62;100.00
5877;BME280;2964;42.144;24.730;2022-11-11T04:47:51;143283.69;;;6.76;100.00
5877;BME280;2964;42.144;24.730;2022-11-11T04:50:18;143214.81;;;6.48;100.00
5877;BME280;2964;42.144;24.730;2022-11-11T04:52:46;143251.13;;;6.63;100.00
5877;BME280;2964;42.144;24.730;2022-11-11T04:55:13;143221.06;;;6.51;100.00
5877;BME280;2964;42.144;24.730;2022-11-11T04:57:57;143330.03;;;6.95;100.00
5877;BME280;2964;42.144;24.730;2022-11-11T05:00:23;143297.44;;;6.82;100.00
5877;BME280;2964;42.144;24.730;2022-11-11T05:02:53;143303.72;;;6.85;100.00
5877;BME280;2964;42.144;24.730;2022-11-11T05:05:37;143281.19;;;6.75;100.00
5877;BME280;2964;42.144;24.730;2022-11-11T05:08:19;143216.06;;;6.49;100.00
5877;BME280;2964;42.144;24.730;2022-11-11T05:11:03;143214.81;;;6.48;100.00
5877;BME280;2964;42.144;24.730;2022-11-11T05:13:30;143207.31;;;6.45;100.00
5877;BME280;2964;42.144;24.730;2022-11-11T05:16:17;143291.19;;;6.80;100.00
5877;BME280;2964;42.144;24.730;2022-11-11T05:19:02;143206.06;;;6.45;100.00
5877;BME280;2964;42.144;24.730;2022-11-11T05:21:46;143216.06;;;6.49;100.00
5877;BME280;2964;42.144;24.730;2022-11-11T05:24:14;143234.84;;;6.56;100.00
5877;BME280;2964;42.144;24.730;2022-11-11T05:26:58;143208.59;;;6.46;100.00
5877;BME280;2964;42.144;24.730;2022-11-11T05:29:25;143209.81;;;6.46;100.00
5877;BME280;2964;42.144;24.730;2022-11-11T05:31:51;143171.00;;;6.30;100.00
5877;BME280;2964;42.144;24.730;2022-11-11T05:34:18;143222.34;;;6.51;100.00
5877;BME280;2964;42.144;24.730;2022-11-11T05:36:45;143213.59;;;6.48;100.00
5877;BME280;2964;42.144;24.730;2022-11-11T05:39:11;143293.72;;;6.81;100.00
5877;BME280;2964;42.144;24.730;2022-11-11T05:41:39;143268.66;;;6.70;100.00
5877;BME280;2964;42.144;24.730;2022-11-11T05:44:06;143277.44;;;6.74;100.00
5877;BME280;2964;42.144;24.730;2022-11-11T05:46:33;143268.66;;;6.70;100.00
5877;BME280;2964;42.144;24.730;2022-11-11T05:48:59;143266.13;;;6.69;100.00
5877;BME280;2964;42.144;24.730;2022-11-11T05:51:41;143356.31;;;7.06;100.00
5877;BME280;2964;42.144;24.730;2022-11-11T05:54:08;143361.34;;;7.08;100.00
5877;BME280;2964;42.144;24.730;2022-11-11T05:56:34;143376.38;;;7.14;100.00
5877;BME280;2964;42.144;24.730;2022-11-11T05:59:03;143391.38;;;7.21;100.00
5877;BME280;2964;42.144;24.730;2022-11-11T06:01:30;143449.00;;;7.44;100.00
5877;BME280;2964;42.144;24.730;2022-11-11T06:03:57;143556.78;;;7.88;100.00
5877;BME280;2964;42.144;24.730;2022-11-11T06:06:23;143554.25;;;7.87;100.00
5877;BME280;2964;42.144;24.730;2022-11-11T06:08:50;143549.25;;;7.85;100.00
5877;BME280;2964;42.144;24.730;2022-11-11T06:11:17;143559.31;;;7.89;100.00
5877;BME280;2964;42.144;24.730;2022-11-11T06:13:44;143609.44;;;8.10;100.00
5877;BME280;2964;42.144;24.730;2022-11-11T06:16:12;143605.69;;;8.08;100.00
5877;BME280;2964;42.144;24.730;2022-11-11T06:18:38;143589.38;;;8.02;100.00
5877;BME280;2964;42.144;24.730;2022-11-11T06:21:05;143658.34;;;8.30;100.00
5877;BME280;2964;42.144;24.730;2022-11-11T06:23:32;143694.75;;;8.45;100.00
5877;BME280;2964;42.144;24.730;2022-11-11T06:25:59;143752.41;;;8.68;99.23
5877;BME280;2964;42.144;24.730;2022-11-11T06:28:42;143780.03;;;8.80;98.26
5877;BME280;2964;42.144;24.730;2022-11-11T06:31:12;143798.84;;;8.87;97.63
5877;BME280;2964;42.144;24.730;2022-11-11T06:33:39;143842.72;;;9.05;97.00
5877;BME280;2964;42.144;24.730;2022-11-11T06:36:07;143872.84;;;9.18;97.06
5877;BME280;2964;42.144;24.730;2022-11-11T06:38:34;143870.34;;;9.17;95.86
5877;BME280;2964;42.144;24.730;2022-11-11T06:41:01;143926.78;;;9.40;95.39
5877;BME280;2964;42.144;24.730;2022-11-11T06:43:28;143963.19;;;9.55;95.02
5877;BME280;2964;42.144;24.730;2022-11-11T06:45:55;143945.59;;;9.47;95.14
5877;BME280;2964;42.144;24.730;2022-11-11T06:48:24;143990.78;;;9.66;95.29
5877;BME280;2964;42.144;24.730;2022-11-11T06:50:51;144041.00;;;9.86;94.95
5877;BME280;2964;42.144;24.730;2022-11-11T06:53:19;144121.34;;;10.19;93.16
5877;BME280;2964;42.144;24.730;2022-11-11T06:55:46;144179.19;;;10.43;93.13
5877;BME280;2964;42.144;24.730;2022-11-11T06:58:14;144247.00;;;10.71;92.42
5877;BME280;2964;42.144;24.730;2022-11-11T07:00:42;144377.69;;;11.24;90.98
5877;BME280;2964;42.144;24.730;2022-11-11T07:03:11;144446.78;;;11.52;88.80
5877;BME280;2964;42.144;24.730;2022-11-11T07:05:39;144489.56;;;11.70;88.73
5877;BME280;2964;42.144;24.730;2022-11-11T07:08:09;144512.19;;;11.79;88.19
5877;BME280;2964;42.144;24.730;2022-11-11T07:10:37;144561.28;;;11.99;89.03
5877;BME280;2964;42.144;24.730;2022-11-11T07:13:04;144669.47;;;12.43;87.57
5877;BME280;2964;42.144;24.730;2022-11-11T07:15:31;144732.38;;;12.69;86.56
5877;BME280;2964;42.144;24.730;2022-11-11T07:17:58;144790.22;;;12.92;86.89
5877;BME280;2964;42.144;24.730;2022-11-11T07:20:26;144619.09;;;12.23;87.37
5877;BME280;2964;42.144;24.730;2022-11-11T07:22:54;144802.81;;;12.98;85.39
5877;BME280;2964;42.144;24.730;2022-11-11T07:25:21;145015.59;;;13.84;85.40
5877;BME280;2964;42.144;24.730;2022-11-11T07:27:48;145105.03;;;14.21;84.92
5877;BME280;2964;42.144;24.730;2022-11-11T07:30:15;145190.69;;;14.56;82.80
5877;BME280;2964;42.144;24.730;2022-11-11T07:32:45;145256.25;;;14.82;82.23
5877;BME280;2964;42.144;24.730;2022-11-11T07:35:12;145278.94;;;14.92;82.15
5877;BME280;2964;42.144;24.730;2022-11-11T07:37:40;145344.50;;;15.18;81.92
5877;BME280;2964;42.144;24.730;2022-11-11T07:40:09;145412.59;;;15.46;81.41
5877;BME280;2964;42.144;24.730;2022-11-11T07:42:37;145422.66;;;15.50;81.48
5877;BME280;2964;42.144;24.730;2022-11-11T07:45:05;145446.63;;;15.60;81.05
5877;BME280;2964;42.144;24.730;2022-11-11T07:47:32;145422.66;;;15.50;80.45
5877;BME280;2964;42.144;24.730;2022-11-11T07:50:00;145479.44;;;15.73;80.21
5877;BME280;2964;42.144;24.730;2022-11-11T07:52:26;145504.69;;;15.83;79.91
5877;BME280;2964;42.144;24.730;2022-11-11T07:54:53;145526.13;;;15.92;80.19
5877;BME280;2964;42.144;24.730;2022-11-11T07:57:21;145532.44;;;15.95;80.15
5877;BME280;2964;42.144;24.730;2022-11-11T07:59:48;145561.47;;;16.07;79.68
5877;BME280;2964;42.144;24.730;2022-11-11T08:02:15;145603.09;;;16.24;79.55
5877;BME280;2964;42.144;24.730;2022-11-11T08:04:42;145622.00;;;16.31;79.55
5877;BME280;2964;42.144;24.730;2022-11-11T08:07:08;145627.03;;;16.33;79.68
5877;BME280;2964;42.144;24.730;2022-11-11T08:09:35;145662.38;;;16.48;79.43
5877;BME280;2964;42.144;24.730;2022-11-11T08:12:02;145643.47;;;16.40;79.26
5877;BME280;2964;42.144;24.730;2022-11-11T08:14:48;145710.31;;;16.67;78.26
5877;BME280;2964;42.144;24.730;2022-11-11T08:17:14;145700.22;;;16.63;77.72
5877;BME280;2964;42.144;24.730;2022-11-11T08:19:41;145743.16;;;16.81;77.18
5877;BME280;2964;42.144;24.730;2022-11-11T08:22:08;145773.47;;;16.93;76.01
5877;BME280;2964;42.144;24.730;2022-11-11T08:24:34;145808.81;;;17.07;75.88
5877;BME280;2964;42.144;24.730;2022-11-11T08:27:01;145869.47;;;17.32;75.45
5877;BME280;2964;42.144;24.730;2022-11-11T08:29:27;145869.47;;;17.32;74.99
5877;BME280;2964;42.144;24.730;2022-11-11T08:31:55;145782.31;;;16.96;75.96
5877;BME280;2964;42.144;24.730;2022-11-11T08:34:23;145772.22;;;16.92;76.61
5877;BME280;2964;42.144;24.730;2022-11-11T08:36:49;145811.38;;;17.08;76.14
5877;BME280;2964;42.144;24.730;2022-11-11T08:39:16;145772.22;;;16.92;76.02
5877;BME280;2964;42.144;24.730;2022-11-11T08:41:43;145793.69;;;17.01;76.54
5877;BME280;2964;42.144;24.730;2022-11-11T08:44:09;145754.53;;;16.85;77.05
5877;BME280;2964;42.144;24.730;2022-11-11T08:46:36;145748.25;;;16.83;77.64
5877;BME280;2964;42.144;24.730;2022-11-11T08:49:04;145725.47;;;16.73;78.32
5877;BME280;2964;42.144;24.730;2022-11-11T08:51:30;145717.91;;;16.70;78.31
5877;BME280;2964;42.144;24.730;2022-11-11T08:53:57;145700.22;;;16.63;78.99
5877;BME280;2964;42.144;24.730;2022-11-11T08:56:24;145710.31;;;16.67;78.90
5877;BME280;2964;42.144;24.730;2022-11-11T08:58:50;145738.13;;;16.78;79.01
5877;BME280;2964;42.144;24.730;2022-11-11T09:01:17;145735.56;;;16.77;78.48
5877;BME280;2964;42.144;24.730;2022-11-11T09:03:44;145682.56;;;16.56;79.85
5877;BME280;2964;42.144;24.730;2022-11-11T09:06:12;145707.81;;;16.66;79.64
5877;BME280;2964;42.144;24.730;2022-11-11T09:08:41;145658.59;;;16.46;79.31
5877;BME280;2964;42.144;24.730;2022-11-11T09:11:08;145686.34;;;16.57;79.63
5877;BME280;2964;42.144;24.730;2022-11-11T09:13:34;145664.88;;;16.49;79.63
5877;BME280;2964;42.144;24.730;2022-11-11T09:16:01;145682.56;;;16.56;79.62
5877;BME280;2964;42.144;24.730;2022-11-11T09:18:28;145720.44;;;16.71;79.82
5877;BME280;2964;42.144;24.730;2022-11-11T09:20:56;145727.97;;;16.74;79.13
5877;BME280;2964;42.144;24.730;2022-11-11T09:23:25;145748.25;;;16.83;79.07
5877;BME280;2964;42.144;24.730;2022-11-11T09:25:51;145791.16;;;17.00;78.06
5877;BME280;2964;42.144;24.730;2022-11-11T09:28:18;145817.66;;;17.11;76.47
5877;BME280;2964;42.144;24.730;2022-11-11T09:30:45;145820.22;;;17.12;76.18
5877;BME280;2964;42.144;24.730;2022-11-11T09:33:12;145783.59;;;16.97;76.26
5877;BME280;2964;42.144;24.730;2022-11-11T09:35:40;145768.44;;;16.91;75.61
5877;BME280;2964;42.144;24.730;2022-11-11T09:38:07;145743.16;;;16.81;75.87
5877;BME280;2964;42.144;24.730;2022-11-11T09:40:48;145613.16;;;16.28;75.78
5877;BME280;2964;42.144;24.730;2022-11-11T09:43:27;145656.09;;;16.45;76.62
5877;BME280;2964;42.144;24.730;2022-11-11T09:46:09;145669.97;;;16.51;77.24
5877;BME280;2964;42.144;24.730;2022-11-11T09:48:45;145675.00;;;16.53;77.53
5877;BME280;2964;42.144;24.730;2022-11-11T09:51:20;145606.88;;;16.25;77.63
5877;BME280;2964;42.144;24.730;2022-11-11T09:53:50;145639.66;;;16.38;77.58
5877;BME280;2964;42.144;24.730;2022-11-11T09:56:22;145652.28;;;16.44;77.42
5877;BME280;2964;42.144;24.730;2022-11-11T09:58:51;145625.78;;;16.33;77.67
5877;BME280;2964;42.144;24.730;2022-11-11T10:01:21;145637.13;;;16.37;77.51
5877;BME280;2964;42.144;24.730;2022-11-11T10:03:56;145619.47;;;16.30;78.10
5877;BME280;2964;42.144;24.730;2022-11-11T10:06:26;145571.53;;;16.11;79.03
5877;BME280;2964;42.144;24.730;2022-11-11T10:08:57;145488.31;;;15.77;80.07
5877;BME280;2964;42.144;24.730;2022-11-11T10:11:40;145534.97;;;15.96;80.15
5877;BME280;2964;42.144;24.730;2022-11-11T10:14:09;145478.13;;;15.73;80.80
5877;BME280;2964;42.144;24.730;2022-11-11T10:16:42;145498.38;;;15.81;80.96
5877;BME280;2964;42.144;24.730;2022-11-11T10:19:21;145460.47;;;15.66;81.37
5877;BME280;2964;42.144;24.730;2022-11-11T10:21:57;145474.34;;;15.71;82.13
5877;BME280;2964;42.144;24.730;2022-11-11T10:24:28;145492.06;;;15.78;81.14
5877;BME280;2964;42.144;24.730;2022-11-11T10:26:58;145483.22;;;15.75;81.48
5877;BME280;2964;42.144;24.730;2022-11-11T10:29:29;145412.59;;;15.46;82.19
5877;BME280;2964;42.144;24.730;2022-11-11T10:32:01;145377.28;;;15.32;83.04
5877;BME280;2964;42.144;24.730;2022-11-11T10:34:32;145374.75;;;15.31;83.47
5877;BME280;2964;42.144;24.730;2022-11-11T10:37:00;145393.69;;;15.38;82.98
5877;BME280;2964;42.144;24.730;2022-11-11T10:39:36;145396.19;;;15.39;82.82
5877;BME280;2964;42.144;24.730;2022-11-11T10:42:14;145407.56;;;15.44;82.49
5877;BME280;2964;42.144;24.730;2022-11-11T10:44:43;145387.34;;;15.36;82.70
5877;BME280;2964;42.144;24.730;2022-11-11T10:47:13;145407.56;;;15.44;82.96
5877;BME280;2964;42.144;24.730;2022-11-11T10:49:50;145435.28;;;15.55;82.48
5877;BME280;2964;42.144;24.730;2022-11-11T10:52:21;145454.19;;;15.63;82.11
5877;BME280;2964;42.144;24.730;2022-11-11T10:54:52;145439.09;;;15.57;81.92
5877;BME280;2964;42.144;24.730;2022-11-11T10:57:27;145425.22;;;15.51;82.52
5877;BME280;2964;42.144;24.730;2022-11-11T10:59:59;145449.16;;;15.61;82.96
5877;BME280;2964;42.144;24.730;2022-11-11T11:02:32;145478.13;;;15.73;82.42
5877;BME280;2964;42.144;24.730;2022-11-11T11:05:03;145343.22;;;15.18;83.14
5877;BME280;2964;42.144;24.730;2022-11-11T11:07:35;145483.22;;;15.75;83.25
5877;BME280;2964;42.144;24.730;2022-11-11T11:10:07;145452.94;;;15.62;83.24
5877;BME280;2964;42.144;24.730;2022-11-11T11:12:43;145421.41;;;15.50;83.80
5877;BME280;2964;42.144;24.730;2022-11-11T11:15:16;145382.31;;;15.34;84.26
5877;BME280;2964;42.144;24.730;2022-11-11T11:17:50;145426.47;;;15.52;84.22
5877;BME280;2964;42.144;24.730;2022-11-11T11:20:19;145421.41;;;15.50;84.81
5877;BME280;2964;42.144;24.730;2022-11-11T11:22:50;145396.19;;;15.39;84.20
5877;BME280;2964;42.144;24.730;2022-11-11T11:25:18;145397.44;;;15.40;84.75
5877;BME280;2964;42.144;24.730;2022-11-11T11:27:49;145338.19;;;15.16;84.95
5877;BME280;2964;42.144;24.730;2022-11-11T11:30:17;145413.84;;;15.47;83.32
5877;BME280;2964;42.144;24.730;2022-11-11T11:32:55;145413.84;;;15.47;83.57
5877;BME280;2964;42.144;24.730;2022-11-11T11:35:39;145425.22;;;15.51;83.10
5877;BME280;2964;42.144;24.730;2022-11-11T11:38:07;145434.03;;;15.55;82.98
5877;BME280;2964;42.144;24.730;2022-11-11T11:40:48;145364.66;;;15.27;83.95
5877;BME280;2964;42.144;24.730;2022-11-11T11:43:33;145325.63;;;15.11;84.28
5877;BME280;2964;42.144;24.730;2022-11-11T11:46:01;145354.59;;;15.22;84.18
5877;BME280;2964;42.144;24.730;2022-11-11T11:48:39;145352.03;;;15.21;83.59
5877;BME280;2964;42.144;24.730;2022-11-11T11:51:19;145393.69;;;15.38;83.96
5877;BME280;2964;42.144;24.730;2022-11-11T11:53:55;145415.09;;;15.47;83.41
5877;BME280;2964;42.144;24.730;2022-11-11T11:56:35;145417.63;;;15.48;83.86
5877;BME280;2964;42.144;24.730;2022-11-11T11:59:10;145412.59;;;15.46;83.26
5877;BME280;2964;42.144;24.730;2022-11-11T12:01:49;145440.31;;;15.57;82.94
5877;BME280;2964;42.144;24.730;2022-11-11T12:04:55;145480.72;;;15.74;81.86
5877;BME280;2964;42.144;24.730;2022-11-11T12:07:38;145466.81;;;15.68;82.17
5877;BME280;2964;42.144;24.730;2022-11-11T12:10:23;145479.44;;;15.73;82.71
5877;BME280;2964;42.144;24.730;2022-11-11T12:12:57;145365.97;;;15.27;85.77
5877;BME280;2964;42.144;24.730;2022-11-11T12:15:32;145369.69;;;15.29;86.78
5877;BME280;2964;42.144;24.730;2022-11-11T12:18:16;145428.94;;;15.53;86.93
5877;BME280;2964;42.144;24.730;2022-11-11T12:20:49;145426.47;;;15.52;86.92
5877;BME280;2964;42.144;24.730;2022-11-11T12:23:38;145475.66;;;15.72;86.92
5877;BME280;2964;42.144;24.730;2022-11-11T12:26:12;145499.63;;;15.81;86.66
5877;BME280;2964;42.144;24.730;2022-11-11T12:28:55;145461.78;;;15.66;88.04
5877;BME280;2964;42.144;24.730;2022-11-11T12:31:36;145469.31;;;15.69;87.46
5877;BME280;2964;42.144;24.730;2022-11-11T12:34:17;145504.69;;;15.83;86.48
5877;BME280;2964;42.144;24.730;2022-11-11T12:36:53;145321.81;;;15.09;87.00
5877;BME280;2964;42.144;24.730;2022-11-11T12:39:36;145468.06;;;15.69;86.68
5877;BME280;2964;42.144;24.730;2022-11-11T12:42:16;145487.03;;;15.76;87.00
5877;BME280;2964;42.144;24.730;2022-11-11T12:44:54;145487.03;;;15.76;86.98
5877;BME280;2964;42.144;24.730;2022-11-11T12:47:33;145490.81;;;15.78;86.94
5877;BME280;2964;42.144;24.730;2022-11-11T12:50:12;145473.09;;;15.71;87.77
5877;BME280;2964;42.144;24.730;2022-11-11T12:52:53;145456.75;;;15.64;87.78
5877;BME280;2964;42.144;24.730;2022-11-11T12:55:30;145459.22;;;15.65;88.00
5877;BME280;2964;42.144;24.730;2022-11-11T12:58:09;145445.38;;;15.59;87.90
5877;BME280;2964;42.144;24.730;2022-11-11T13:00:50;145436.53;;;15.56;88.19
5877;BME280;2964;42.144;24.730;2022-11-11T13:03:46;145439.09;;;15.57;87.65
5877;BME280;2964;42.144;24.730;2022-11-11T13:06:24;145430.25;;;15.53;87.75
5877;BME280;2964;42.144;24.730;2022-11-11T13:09:08;145377.28;;;15.32;89.14
5877;BME280;2964;42.144;24.730;2022-11-11T13:11:47;145377.28;;;15.32;89.75
5877;BME280;2964;42.144;24.730;2022-11-11T13:14:34;145301.63;;;15.01;90.35
5877;BME280;2964;42.144;24.730;2022-11-11T13:17:08;145377.28;;;15.32;89.97
5877;BME280;2964;42.144;24.730;2022-11-11T13:19:39;145389.91;;;15.37;89.92
5877;BME280;2964;42.144;24.730;2022-11-11T13:22:15;145357.13;;;15.23;90.35
5877;BME280;2964;42.144;24.730;2022-11-11T13:24:47;145344.50;;;15.18;90.92